Skip Navigation LinksHome page > Weather > Current weather Skip Navigation Links

Current Weather

Alert, Nunavut

For information only: do not use for flight planning or navigation.
Latest weather
Observation time Wednesday, January 18, 2017 8:27 AM EST
Local time Wednesday, January 18, 2017 8:58 AM EST
Flight conditions Low Instrument Meteorological Conditions
Winds
Wind direction Southwest (220°)
Wind speed 40 mph
Visibility 0 mi.
Present weather heavy blowing snow
Sky condition
Ceiling 0 ft. indefinite
Cloud layer vertical visibility 0 ft.
Temperature -8°F
Dewpoint -13°F
Altimeter 29.12 in.Hg
Derived measurements
Relative humidity 76%
Wind chill -39°F
Density altitude -3788 ft.
Sea-level pressure 32.09 in.Hg
Remarks
Special weather observation.
Last observation of the day.
METAR SPECI CYLT 181327Z 22035KT 0SM +BLSN VV000 M22/M25 A2912 RMK BLSN8 LAST OBS/NEXT 190800 UTC SLP868

Settings

Location code

InnerDrive.Weather 4.0.6144.1 Release CLR 4.0.30319.34209
Copyright ©2015 Inner Drive Technology. All rights reserved. Portions Copyright ©1986-2015 David Braverman.

Find weather

Site navigation


Skip Navigation Links

Place info

Page info

PayPal - The safer, easier way to pay online!

Return home.

Copyright ©2017 Inner Drive Technology. Purveyors of fine, hand-crafted computer software. Page printed 2017-01-18T13:58:49 UTC.